sensor_id;sensor_type;location;lat;lon;timestamp;temperature;humidity
22469;DHT22;11401;50.792;4.352;2023-12-28T00:02:25;17.50;56.60
22469;DHT22;11401;50.792;4.352;2023-12-28T00:04:52;17.60;56.80
22469;DHT22;11401;50.792;4.352;2023-12-28T00:07:19;17.70;56.90
22469;DHT22;11401;50.792;4.352;2023-12-28T00:09:46;17.50;55.80
22469;DHT22;11401;50.792;4.352;2023-12-28T00:12:13;17.50;57.20
22469;DHT22;11401;50.792;4.352;2023-12-28T00:14:41;17.60;57.30
22469;DHT22;11401;50.792;4.352;2023-12-28T00:17:08;17.70;56.90
22469;DHT22;11401;50.792;4.352;2023-12-28T00:19:35;17.60;56.10
22469;DHT22;11401;50.792;4.352;2023-12-28T00:22:02;17.50;56.50
22469;DHT22;11401;50.792;4.352;2023-12-28T00:24:29;17.60;56.90
22469;DHT22;11401;50.792;4.352;2023-12-28T00:26:56;17.70;57.30
22469;DHT22;11401;50.792;4.352;2023-12-28T00:29:23;17.60;56.50
22469;DHT22;11401;50.792;4.352;2023-12-28T00:31:50;17.60;56.80
22469;DHT22;11401;50.792;4.352;2023-12-28T00:34:17;17.70;57.40
22469;DHT22;11401;50.792;4.352;2023-12-28T00:36:44;17.50;56.00
22469;DHT22;11401;50.792;4.352;2023-12-28T00:39:11;17.40;56.60
22469;DHT22;11401;50.792;4.352;2023-12-28T00:41:39;17.30;56.70
22469;DHT22;11401;50.792;4.352;2023-12-28T00:44:06;17.20;57.30
22469;DHT22;11401;50.792;4.352;2023-12-28T00:46:36;17.20;57.40
22469;DHT22;11401;50.792;4.352;2023-12-28T00:49:04;17.30;58.00
22469;DHT22;11401;50.792;4.352;2023-12-28T00:51:33;17.30;57.50
22469;DHT22;11401;50.792;4.352;2023-12-28T00:54:00;17.30;57.30
22469;DHT22;11401;50.792;4.352;2023-12-28T00:56:27;17.30;57.40
22469;DHT22;11401;50.792;4.352;2023-12-28T00:58:54;17.50;58.70
22469;DHT22;11401;50.792;4.352;2023-12-28T01:01:22;17.50;57.60
22469;DHT22;11401;50.792;4.352;2023-12-28T01:03:49;17.70;58.30
22469;DHT22;11401;50.792;4.352;2023-12-28T01:06:16;17.60;57.20
22469;DHT22;11401;50.792;4.352;2023-12-28T01:08:43;17.50;56.50
22469;DHT22;11401;50.792;4.352;2023-12-28T01:11:11;17.40;56.80
22469;DHT22;11401;50.792;4.352;2023-12-28T01:13:42;17.50;57.20
22469;DHT22;11401;50.792;4.352;2023-12-28T01:16:09;17.60;58.20
22469;DHT22;11401;50.792;4.352;2023-12-28T01:18:39;17.60;57.50
22469;DHT22;11401;50.792;4.352;2023-12-28T01:21:06;17.60;56.90
22469;DHT22;11401;50.792;4.352;2023-12-28T01:23:33;17.60;56.90
22469;DHT22;11401;50.792;4.352;2023-12-28T01:26:00;17.70;57.70
22469;DHT22;11401;50.792;4.352;2023-12-28T01:28:27;17.60;57.10
22469;DHT22;11401;50.792;4.352;2023-12-28T01:30:54;17.60;56.90
22469;DHT22;11401;50.792;4.352;2023-12-28T01:33:22;17.60;56.70
22469;DHT22;11401;50.792;4.352;2023-12-28T01:35:49;17.60;57.70
22469;DHT22;11401;50.792;4.352;2023-12-28T01:38:16;17.60;57.20
22469;DHT22;11401;50.792;4.352;2023-12-28T01:40:46;17.50;57.00
22469;DHT22;11401;50.792;4.352;2023-12-28T01:43:14;17.50;57.20
22469;DHT22;11401;50.792;4.352;2023-12-28T01:45:41;17.50;57.70
22469;DHT22;11401;50.792;4.352;2023-12-28T01:48:08;17.60;57.20
22469;DHT22;11401;50.792;4.352;2023-12-28T01:50:36;17.50;57.40
22469;DHT22;11401;50.792;4.352;2023-12-28T01:53:04;17.60;57.60
22469;DHT22;11401;50.792;4.352;2023-12-28T01:55:31;17.70;57.70
22469;DHT22;11401;50.792;4.352;2023-12-28T01:57:59;17.50;57.40
22469;DHT22;11401;50.792;4.352;2023-12-28T02:00:27;17.50;57.10
22469;DHT22;11401;50.792;4.352;2023-12-28T02:02:54;17.30;56.80
22469;DHT22;11401;50.792;4.352;2023-12-28T02:05:21;17.30;57.30
22469;DHT22;11401;50.792;4.352;2023-12-28T02:07:48;17.20;57.10
22469;DHT22;11401;50.792;4.352;2023-12-28T02:10:15;17.10;57.50
22469;DHT22;11401;50.792;4.352;2023-12-28T02:12:42;17.10;57.50
22469;DHT22;11401;50.792;4.352;2023-12-28T02:15:10;17.10;57.80
22469;DHT22;11401;50.792;4.352;2023-12-28T02:17:52;17.00;57.90
22469;DHT22;11401;50.792;4.352;2023-12-28T02:20:21;17.10;58.10
22469;DHT22;11401;50.792;4.352;2023-12-28T02:22:49;17.10;58.20
22469;DHT22;11401;50.792;4.352;2023-12-28T02:25:17;17.10;58.40
22469;DHT22;11401;50.792;4.352;2023-12-28T02:27:46;17.10;58.10
22469;DHT22;11401;50.792;4.352;2023-12-28T02:30:16;17.20;58.80
22469;DHT22;11401;50.792;4.352;2023-12-28T02:32:52;17.20;58.40
22469;DHT22;11401;50.792;4.352;2023-12-28T02:35:26;17.20;58.30
22469;DHT22;11401;50.792;4.352;2023-12-28T02:37:59;17.40;58.80
22469;DHT22;11401;50.792;4.352;2023-12-28T02:40:27;17.40;58.00
22469;DHT22;11401;50.792;4.352;2023-12-28T02:42:55;17.50;58.50
22469;DHT22;11401;50.792;4.352;2023-12-28T02:45:23;17.50;58.00
22469;DHT22;11401;50.792;4.352;2023-12-28T02:47:50;17.60;57.80
22469;DHT22;11401;50.792;4.352;2023-12-28T02:50:17;17.50;57.30
22469;DHT22;11401;50.792;4.352;2023-12-28T02:52:44;17.50;57.50
22469;DHT22;11401;50.792;4.352;2023-12-28T02:55:11;17.40;57.90
22469;DHT22;11401;50.792;4.352;2023-12-28T02:57:38;17.30;57.40
22469;DHT22;11401;50.792;4.352;2023-12-28T03:00:06;17.40;57.90
22469;DHT22;11401;50.792;4.352;2023-12-28T03:02:37;17.30;57.50
22469;DHT22;11401;50.792;4.352;2023-12-28T03:05:05;17.30;57.90
22469;DHT22;11401;50.792;4.352;2023-12-28T03:07:34;17.20;57.90
22469;DHT22;11401;50.792;4.352;2023-12-28T03:10:02;17.20;58.10
22469;DHT22;11401;50.792;4.352;2023-12-28T03:12:30;17.30;58.30
22469;DHT22;11401;50.792;4.352;2023-12-28T03:14:57;17.30;57.90
22469;DHT22;11401;50.792;4.352;2023-12-28T03:17:24;17.30;57.40
22469;DHT22;11401;50.792;4.352;2023-12-28T03:19:51;17.40;58.50
22469;DHT22;11401;50.792;4.352;2023-12-28T03:22:18;17.30;57.50
22469;DHT22;11401;50.792;4.352;2023-12-28T03:24:46;17.40;58.10
22469;DHT22;11401;50.792;4.352;2023-12-28T03:27:14;17.30;57.40
22469;DHT22;11401;50.792;4.352;2023-12-28T03:29:42;17.10;57.70
22469;DHT22;11401;50.792;4.352;2023-12-28T03:32:10;17.20;59.00
22469;DHT22;11401;50.792;4.352;2023-12-28T03:34:37;17.30;58.00
22469;DHT22;11401;50.792;4.352;2023-12-28T03:37:04;17.20;57.60
22469;DHT22;11401;50.792;4.352;2023-12-28T03:39:33;17.20;57.70
22469;DHT22;11401;50.792;4.352;2023-12-28T03:42:00;17.30;58.70
22469;DHT22;11401;50.792;4.352;2023-12-28T03:44:27;17.50;58.20
22469;DHT22;11401;50.792;4.352;2023-12-28T03:46:54;17.40;57.70
22469;DHT22;11401;50.792;4.352;2023-12-28T03:49:22;17.30;57.80
22469;DHT22;11401;50.792;4.352;2023-12-28T03:51:50;17.20;57.60
22469;DHT22;11401;50.792;4.352;2023-12-28T03:54:19;17.00;57.30
22469;DHT22;11401;50.792;4.352;2023-12-28T03:56:47;17.10;58.30
22469;DHT22;11401;50.792;4.352;2023-12-28T03:59:14;17.20;58.50
22469;DHT22;11401;50.792;4.352;2023-12-28T04:01:45;17.20;57.80
22469;DHT22;11401;50.792;4.352;2023-12-28T04:04:12;17.20;57.60
22469;DHT22;11401;50.792;4.352;2023-12-28T04:06:39;17.20;58.10
22469;DHT22;11401;50.792;4.352;2023-12-28T04:09:08;17.30;57.70
22469;DHT22;11401;50.792;4.352;2023-12-28T04:11:38;17.20;57.60
22469;DHT22;11401;50.792;4.352;2023-12-28T04:14:05;17.30;58.60
22469;DHT22;11401;50.792;4.352;2023-12-28T04:16:32;17.40;57.60
22469;DHT22;11401;50.792;4.352;2023-12-28T04:18:59;17.30;58.20
22469;DHT22;11401;50.792;4.352;2023-12-28T04:21:27;17.40;58.30
22469;DHT22;11401;50.792;4.352;2023-12-28T04:23:54;17.30;57.20
22469;DHT22;11401;50.792;4.352;2023-12-28T04:26:21;17.40;58.00
22469;DHT22;11401;50.792;4.352;2023-12-28T04:28:48;17.50;58.90
22469;DHT22;11401;50.792;4.352;2023-12-28T04:31:15;17.50;58.50
22469;DHT22;11401;50.792;4.352;2023-12-28T04:33:43;17.60;59.00
22469;DHT22;11401;50.792;4.352;2023-12-28T04:36:11;17.70;58.10
22469;DHT22;11401;50.792;4.352;2023-12-28T04:38:38;17.60;57.40
22469;DHT22;11401;50.792;4.352;2023-12-28T04:41:06;17.60;57.40
22469;DHT22;11401;50.792;4.352;2023-12-28T04:43:33;17.70;58.00
22469;DHT22;11401;50.792;4.352;2023-12-28T04:46:06;17.70;57.60
22469;DHT22;11401;50.792;4.352;2023-12-28T04:48:34;17.70;57.10
22469;DHT22;11401;50.792;4.352;2023-12-28T04:51:04;17.50;56.30
22469;DHT22;11401;50.792;4.352;2023-12-28T04:53:31;17.50;56.60
22469;DHT22;11401;50.792;4.352;2023-12-28T04:55:59;17.50;57.90
22469;DHT22;11401;50.792;4.352;2023-12-28T04:58:26;17.60;58.60
22469;DHT22;11401;50.792;4.352;2023-12-28T05:00:53;17.50;57.00
22469;DHT22;11401;50.792;4.352;2023-12-28T05:03:20;17.40;56.80
22469;DHT22;11401;50.792;4.352;2023-12-28T05:05:47;17.30;57.00
22469;DHT22;11401;50.792;4.352;2023-12-28T05:08:15;17.30;56.80
22469;DHT22;11401;50.792;4.352;2023-12-28T05:10:42;17.40;58.40
22469;DHT22;11401;50.792;4.352;2023-12-28T05:13:10;17.60;58.70
22469;DHT22;11401;50.792;4.352;2023-12-28T05:15:38;17.50;56.50
22469;DHT22;11401;50.792;4.352;2023-12-28T05:18:05;17.40;56.60
22469;DHT22;11401;50.792;4.352;2023-12-28T05:20:34;17.50;57.90
22469;DHT22;11401;50.792;4.352;2023-12-28T05:23:01;17.50;57.50
22469;DHT22;11401;50.792;4.352;2023-12-28T05:25:28;17.40;56.90
22469;DHT22;11401;50.792;4.352;2023-12-28T05:27:55;17.50;58.60
22469;DHT22;11401;50.792;4.352;2023-12-28T05:30:23;17.60;58.20
22469;DHT22;11401;50.792;4.352;2023-12-28T05:32:50;17.70;57.90
22469;DHT22;11401;50.792;4.352;2023-12-28T05:35:17;17.70;57.60
22469;DHT22;11401;50.792;4.352;2023-12-28T05:37:44;17.70;56.70
22469;DHT22;11401;50.792;4.352;2023-12-28T05:40:11;17.60;56.70
22469;DHT22;11401;50.792;4.352;2023-12-28T05:42:38;17.50;56.60
22469;DHT22;11401;50.792;4.352;2023-12-28T05:45:06;17.60;57.30
22469;DHT22;11401;50.792;4.352;2023-12-28T05:47:33;17.50;56.70
22469;DHT22;11401;50.792;4.352;2023-12-28T05:50:00;17.50;57.40
22469;DHT22;11401;50.792;4.352;2023-12-28T05:52:30;17.60;57.80
22469;DHT22;11401;50.792;4.352;2023-12-28T05:54:57;17.70;57.40
22469;DHT22;11401;50.792;4.352;2023-12-28T05:57:25;17.70;57.30
22469;DHT22;11401;50.792;4.352;2023-12-28T05:59:57;17.60;56.70
22469;DHT22;11401;50.792;4.352;2023-12-28T06:02:24;17.60;56.50
22469;DHT22;11401;50.792;4.352;2023-12-28T06:04:51;17.40;56.70
22469;DHT22;11401;50.792;4.352;2023-12-28T06:07:19;17.50;57.90
22469;DHT22;11401;50.792;4.352;2023-12-28T06:09:46;17.30;56.10
22469;DHT22;11401;50.792;4.352;2023-12-28T06:12:13;17.20;56.80
22469;DHT22;11401;50.792;4.352;2023-12-28T06:14:41;17.20;57.40
22469;DHT22;11401;50.792;4.352;2023-12-28T06:17:08;17.40;58.50
22469;DHT22;11401;50.792;4.352;2023-12-28T06:19:35;17.50;58.20
22469;DHT22;11401;50.792;4.352;2023-12-28T06:22:03;17.50;57.60
22469;DHT22;11401;50.792;4.352;2023-12-28T06:24:30;17.50;58.30
22469;DHT22;11401;50.792;4.352;2023-12-28T06:26:57;17.50;57.10
22469;DHT22;11401;50.792;4.352;2023-12-28T06:29:24;17.50;57.50
22469;DHT22;11401;50.792;4.352;2023-12-28T06:31:50;17.60;56.70
22469;DHT22;11401;50.792;4.352;2023-12-28T06:34:18;17.50;56.60
22469;DHT22;11401;50.792;4.352;2023-12-28T06:36:45;17.50;57.60
22469;DHT22;11401;50.792;4.352;2023-12-28T06:39:12;17.50;57.00
22469;DHT22;11401;50.792;4.352;2023-12-28T06:41:39;17.50;56.70
22469;DHT22;11401;50.792;4.352;2023-12-28T06:44:06;17.40;56.70
22469;DHT22;11401;50.792;4.352;2023-12-28T06:46:33;17.50;56.70
22469;DHT22;11401;50.792;4.352;2023-12-28T06:49:00;17.40;56.70
22469;DHT22;11401;50.792;4.352;2023-12-28T06:51:27;17.50;57.50
22469;DHT22;11401;50.792;4.352;2023-12-28T06:53:55;17.60;56.90
22469;DHT22;11401;50.792;4.352;2023-12-28T06:56:22;17.60;57.00
22469;DHT22;11401;50.792;4.352;2023-12-28T06:58:50;17.50;56.60
22469;DHT22;11401;50.792;4.352;2023-12-28T07:01:17;17.50;57.60
22469;DHT22;11401;50.792;4.352;2023-12-28T07:03:45;17.50;56.70
22469;DHT22;11401;50.792;4.352;2023-12-28T07:06:14;17.60;58.10
22469;DHT22;11401;50.792;4.352;2023-12-28T07:08:41;17.70;57.60
22469;DHT22;11401;50.792;4.352;2023-12-28T07:11:10;17.70;57.10
22469;DHT22;11401;50.792;4.352;2023-12-28T07:13:37;17.50;55.70
22469;DHT22;11401;50.792;4.352;2023-12-28T07:16:04;17.30;56.00
22469;DHT22;11401;50.792;4.352;2023-12-28T07:18:34;17.30;56.20
22469;DHT22;11401;50.792;4.352;2023-12-28T07:21:02;17.30;56.80
22469;DHT22;11401;50.792;4.352;2023-12-28T07:23:29;17.20;56.40
22469;DHT22;11401;50.792;4.352;2023-12-28T07:25:57;17.20;57.00
22469;DHT22;11401;50.792;4.352;2023-12-28T07:28:24;17.30;56.90
22469;DHT22;11401;50.792;4.352;2023-12-28T07:30:51;17.10;56.70
22469;DHT22;11401;50.792;4.352;2023-12-28T07:33:18;17.10;56.60
22469;DHT22;11401;50.792;4.352;2023-12-28T07:35:45;17.10;57.70
22469;DHT22;11401;50.792;4.352;2023-12-28T07:38:14;17.10;57.10
22469;DHT22;11401;50.792;4.352;2023-12-28T07:40:42;17.20;57.60
22469;DHT22;11401;50.792;4.352;2023-12-28T07:43:09;17.20;58.10
22469;DHT22;11401;50.792;4.352;2023-12-28T07:45:36;17.40;58.60
22469;DHT22;11401;50.792;4.352;2023-12-28T07:48:06;17.50;57.50
22469;DHT22;11401;50.792;4.352;2023-12-28T07:50:33;17.50;56.50
22469;DHT22;11401;50.792;4.352;2023-12-28T07:53:00;17.30;56.20
22469;DHT22;11401;50.792;4.352;2023-12-28T07:55:27;17.40;56.80
22469;DHT22;11401;50.792;4.352;2023-12-28T07:57:54;17.30;55.70
22469;DHT22;11401;50.792;4.352;2023-12-28T08:00:22;17.20;57.30
22469;DHT22;11401;50.792;4.352;2023-12-28T08:02:49;17.40;58.10
22469;DHT22;11401;50.792;4.352;2023-12-28T08:05:16;17.30;56.10
22469;DHT22;11401;50.792;4.352;2023-12-28T08:07:43;17.20;55.80
22469;DHT22;11401;50.792;4.352;2023-12-28T08:10:10;17.20;56.40
22469;DHT22;11401;50.792;4.352;2023-12-28T08:12:37;17.20;56.90
22469;DHT22;11401;50.792;4.352;2023-12-28T08:15:05;17.20;56.50
22469;DHT22;11401;50.792;4.352;2023-12-28T08:17:32;17.40;58.30
22469;DHT22;11401;50.792;4.352;2023-12-28T08:19:59;17.30;56.10
22469;DHT22;11401;50.792;4.352;2023-12-28T08:22:27;17.30;56.40
22469;DHT22;11401;50.792;4.352;2023-12-28T08:24:54;17.30;56.40
22469;DHT22;11401;50.792;4.352;2023-12-28T08:27:22;17.20;56.20
22469;DHT22;11401;50.792;4.352;2023-12-28T08:29:49;17.40;56.90
22469;DHT22;11401;50.792;4.352;2023-12-28T08:32:16;17.40;57.00
22469;DHT22;11401;50.792;4.352;2023-12-28T08:34:44;17.40;57.30
22469;DHT22;11401;50.792;4.352;2023-12-28T08:37:12;17.40;57.40
22469;DHT22;11401;50.792;4.352;2023-12-28T08:39:39;17.30;56.30
22469;DHT22;11401;50.792;4.352;2023-12-28T08:42:06;17.30;56.30
22469;DHT22;11401;50.792;4.352;2023-12-28T08:44:33;17.20;56.80
22469;DHT22;11401;50.792;4.352;2023-12-28T08:47:01;17.10;56.50
22469;DHT22;11401;50.792;4.352;2023-12-28T08:49:29;17.20;57.20
22469;DHT22;11401;50.792;4.352;2023-12-28T08:51:56;17.20;57.10
22469;DHT22;11401;50.792;4.352;2023-12-28T08:54:23;17.30;58.20
22469;DHT22;11401;50.792;4.352;2023-12-28T08:56:50;17.20;56.60
22469;DHT22;11401;50.792;4.352;2023-12-28T08:59:20;17.20;56.30
22469;DHT22;11401;50.792;4.352;2023-12-28T09:01:48;17.10;56.00
22469;DHT22;11401;50.792;4.352;2023-12-28T09:04:15;17.20;58.30
22469;DHT22;11401;50.792;4.352;2023-12-28T09:06:42;17.20;56.60
22469;DHT22;11401;50.792;4.352;2023-12-28T09:09:11;17.20;58.20
22469;DHT22;11401;50.792;4.352;2023-12-28T09:11:39;17.30;57.60
22469;DHT22;11401;50.792;4.352;2023-12-28T09:14:06;17.20;56.60
22469;DHT22;11401;50.792;4.352;2023-12-28T09:16:33;17.40;58.10
22469;DHT22;11401;50.792;4.352;2023-12-28T09:19:00;17.40;56.50
22469;DHT22;11401;50.792;4.352;2023-12-28T09:21:27;17.50;58.10
22469;DHT22;11401;50.792;4.352;2023-12-28T09:23:54;17.60;57.80
22469;DHT22;11401;50.792;4.352;2023-12-28T09:26:21;17.60;57.80
22469;DHT22;11401;50.792;4.352;2023-12-28T09:28:48;17.60;57.00
22469;DHT22;11401;50.792;4.352;2023-12-28T09:31:15;17.50;56.20
22469;DHT22;11401;50.792;4.352;2023-12-28T09:33:43;17.50;56.10
22469;DHT22;11401;50.792;4.352;2023-12-28T09:36:10;17.30;55.50
22469;DHT22;11401;50.792;4.352;2023-12-28T09:38:41;17.30;57.30
22469;DHT22;11401;50.792;4.352;2023-12-28T09:41:17;17.40;57.20
22469;DHT22;11401;50.792;4.352;2023-12-28T09:44:13;17.60;58.30
22469;DHT22;11401;50.792;4.352;2023-12-28T09:46:42;17.60;57.30
22469;DHT22;11401;50.792;4.352;2023-12-28T09:49:10;17.70;58.00
22469;DHT22;11401;50.792;4.352;2023-12-28T09:51:38;17.80;57.70
22469;DHT22;11401;50.792;4.352;2023-12-28T09:54:05;17.90;58.50
22469;DHT22;11401;50.792;4.352;2023-12-28T09:56:32;17.90;57.20
22469;DHT22;11401;50.792;4.352;2023-12-28T09:59:02;17.90;56.50
22469;DHT22;11401;50.792;4.352;2023-12-28T10:01:30;18.00;56.90
22469;DHT22;11401;50.792;4.352;2023-12-28T10:03:58;17.90;56.20
22469;DHT22;11401;50.792;4.352;2023-12-28T10:06:26;17.90;57.00
22469;DHT22;11401;50.792;4.352;2023-12-28T10:08:53;17.70;56.00
22469;DHT22;11401;50.792;4.352;2023-12-28T10:11:22;17.90;57.60
22469;DHT22;11401;50.792;4.352;2023-12-28T10:13:50;17.90;57.20
22469;DHT22;11401;50.792;4.352;2023-12-28T10:16:17;17.80;56.00
22469;DHT22;11401;50.792;4.352;2023-12-28T10:18:45;17.80;56.30
22469;DHT22;11401;50.792;4.352;2023-12-28T10:21:12;17.80;55.90
22469;DHT22;11401;50.792;4.352;2023-12-28T10:23:40;17.70;55.80
22469;DHT22;11401;50.792;4.352;2023-12-28T10:26:07;17.70;56.10
22469;DHT22;11401;50.792;4.352;2023-12-28T10:28:35;17.80;58.40
22469;DHT22;11401;50.792;4.352;2023-12-28T10:31:05;17.90;58.40
22469;DHT22;11401;50.792;4.352;2023-12-28T10:33:39;17.90;56.60
22469;DHT22;11401;50.792;4.352;2023-12-28T10:36:08;17.90;55.80
22469;DHT22;11401;50.792;4.352;2023-12-28T10:38:37;17.80;56.40
22469;DHT22;11401;50.792;4.352;2023-12-28T10:41:08;17.70;56.10
22469;DHT22;11401;50.792;4.352;2023-12-28T10:46:25;17.70;56.00
22469;DHT22;11401;50.792;4.352;2023-12-28T10:49:05;17.50;56.70
22469;DHT22;11401;50.792;4.352;2023-12-28T10:51:34;17.50;56.00
22469;DHT22;11401;50.792;4.352;2023-12-28T10:55:08;17.60;56.90
22469;DHT22;11401;50.792;4.352;2023-12-28T10:57:23;17.60;57.40
22469;DHT22;11401;50.792;4.352;2023-12-28T10:59:58;17.70;56.90
22469;DHT22;11401;50.792;4.352;2023-12-28T11:02:30;17.70;57.40
22469;DHT22;11401;50.792;4.352;2023-12-28T11:05:02;17.80;57.10
22469;DHT22;11401;50.792;4.352;2023-12-28T11:07:31;17.70;56.40
22469;DHT22;11401;50.792;4.352;2023-12-28T11:10:04;17.70;57.70
22469;DHT22;11401;50.792;4.352;2023-12-28T11:12:32;17.80;58.30
22469;DHT22;11401;50.792;4.352;2023-12-28T11:15:01;18.00;58.20
22469;DHT22;11401;50.792;4.352;2023-12-28T11:17:31;18.00;58.20
22469;DHT22;11401;50.792;4.352;2023-12-28T11:19:59;18.00;57.40
22469;DHT22;11401;50.792;4.352;2023-12-28T11:22:27;18.10;57.60
22469;DHT22;11401;50.792;4.352;2023-12-28T11:24:56;18.10;57.80
22469;DHT22;11401;50.792;4.352;2023-12-28T11:27:23;18.10;56.40
22469;DHT22;11401;50.792;4.352;2023-12-28T11:29:51;18.10;56.50
22469;DHT22;11401;50.792;4.352;2023-12-28T11:32:19;18.10;56.40
22469;DHT22;11401;50.792;4.352;2023-12-28T11:34:56;18.00;55.30
22469;DHT22;11401;50.792;4.352;2023-12-28T11:37:26;18.10;57.30
22469;DHT22;11401;50.792;4.352;2023-12-28T11:39:56;18.10;56.90
22469;DHT22;11401;50.792;4.352;2023-12-28T11:42:25;18.00;57.50
22469;DHT22;11401;50.792;4.352;2023-12-28T11:44:55;18.10;57.00
22469;DHT22;11401;50.792;4.352;2023-12-28T11:47:25;18.20;56.80
22469;DHT22;11401;50.792;4.352;2023-12-28T11:49:54;18.20;56.90
22469;DHT22;11401;50.792;4.352;2023-12-28T11:52:31;18.20;56.80
22469;DHT22;11401;50.792;4.352;2023-12-28T11:54:59;18.20;56.80
22469;DHT22;11401;50.792;4.352;2023-12-28T11:57:27;18.10;56.00
22469;DHT22;11401;50.792;4.352;2023-12-28T12:00:01;18.10;55.80
22469;DHT22;11401;50.792;4.352;2023-12-28T12:02:30;18.10;56.70
22469;DHT22;11401;50.792;4.352;2023-12-28T12:04:57;18.20;57.40
22469;DHT22;11401;50.792;4.352;2023-12-28T12:07:25;18.20;56.90
22469;DHT22;11401;50.792;4.352;2023-12-28T12:09:56;18.10;56.20
22469;DHT22;11401;50.792;4.352;2023-12-28T12:12:25;18.10;56.60
22469;DHT22;11401;50.792;4.352;2023-12-28T12:14:52;18.20;57.70
22469;DHT22;11401;50.792;4.352;2023-12-28T12:17:19;18.10;56.90
22469;DHT22;11401;50.792;4.352;2023-12-28T12:19:46;18.20;57.50
22469;DHT22;11401;50.792;4.352;2023-12-28T12:22:36;18.30;56.70
22469;DHT22;11401;50.792;4.352;2023-12-28T12:25:49;18.20;55.30
22469;DHT22;11401;50.792;4.352;2023-12-28T12:28:16;18.10;56.10
22469;DHT22;11401;50.792;4.352;2023-12-28T12:34:29;18.00;54.50
22469;DHT22;11401;50.792;4.352;2023-12-28T12:36:56;18.00;56.20
22469;DHT22;11401;50.792;4.352;2023-12-28T12:39:26;18.10;57.00
22469;DHT22;11401;50.792;4.352;2023-12-28T12:41:53;18.10;57.20
22469;DHT22;11401;50.792;4.352;2023-12-28T12:44:23;18.10;56.40
22469;DHT22;11401;50.792;4.352;2023-12-28T12:46:59;18.00;56.00
22469;DHT22;11401;50.792;4.352;2023-12-28T12:49:27;18.00;56.30
22469;DHT22;11401;50.792;4.352;2023-12-28T12:51:55;18.00;57.30
22469;DHT22;11401;50.792;4.352;2023-12-28T12:54:22;18.00;56.40
22469;DHT22;11401;50.792;4.352;2023-12-28T12:56:55;18.00;57.10
22469;DHT22;11401;50.792;4.352;2023-12-28T12:59:23;18.00;55.70
22469;DHT22;11401;50.792;4.352;2023-12-28T13:01:52;17.80;55.10
22469;DHT22;11401;50.792;4.352;2023-12-28T13:04:20;17.90;56.30
22469;DHT22;11401;50.792;4.352;2023-12-28T13:06:48;17.90;55.90
22469;DHT22;11401;50.792;4.352;2023-12-28T13:09:16;17.90;56.10
22469;DHT22;11401;50.792;4.352;2023-12-28T13:11:43;17.90;57.30
22469;DHT22;11401;50.792;4.352;2023-12-28T13:14:10;18.00;56.70
22469;DHT22;11401;50.792;4.352;2023-12-28T13:16:37;17.80;55.60
22469;DHT22;11401;50.792;4.352;2023-12-28T13:19:04;17.90;55.80
22469;DHT22;11401;50.792;4.352;2023-12-28T13:21:31;17.70;55.00
22469;DHT22;11401;50.792;4.352;2023-12-28T13:23:58;17.60;55.40
22469;DHT22;11401;50.792;4.352;2023-12-28T13:26:28;17.70;55.70
22469;DHT22;11401;50.792;4.352;2023-12-28T13:28:55;17.70;56.40
22469;DHT22;11401;50.792;4.352;2023-12-28T13:31:23;17.80;57.30
22469;DHT22;11401;50.792;4.352;2023-12-28T13:33:51;17.70;55.30
22469;DHT22;11401;50.792;4.352;2023-12-28T13:36:19;17.70;56.00
22469;DHT22;11401;50.792;4.352;2023-12-28T13:38:46;17.70;56.80
22469;DHT22;11401;50.792;4.352;2023-12-28T13:41:14;17.70;56.40
22469;DHT22;11401;50.792;4.352;2023-12-28T13:43:41;17.80;56.50
22469;DHT22;11401;50.792;4.352;2023-12-28T13:46:08;17.70;55.40
22469;DHT22;11401;50.792;4.352;2023-12-28T13:48:35;17.80;56.70
22469;DHT22;11401;50.792;4.352;2023-12-28T13:51:06;17.80;55.60
22469;DHT22;11401;50.792;4.352;2023-12-28T13:53:35;17.80;56.30
22469;DHT22;11401;50.792;4.352;2023-12-28T13:56:08;17.70;55.30
22469;DHT22;11401;50.792;4.352;2023-12-28T13:58:38;17.70;55.10
22469;DHT22;11401;50.792;4.352;2023-12-28T14:01:05;17.70;56.10
22469;DHT22;11401;50.792;4.352;2023-12-28T14:03:32;17.80;56.80
22469;DHT22;11401;50.792;4.352;2023-12-28T14:06:00;17.80;57.10
22469;DHT22;11401;50.792;4.352;2023-12-28T14:08:28;17.70;55.40
22469;DHT22;11401;50.792;4.352;2023-12-28T14:10:55;17.60;55.00
22469;DHT22;11401;50.792;4.352;2023-12-28T14:13:23;17.60;55.20
22469;DHT22;11401;50.792;4.352;2023-12-28T14:15:50;17.70;56.30
22469;DHT22;11401;50.792;4.352;2023-12-28T14:18:17;17.70;57.10
22469;DHT22;11401;50.792;4.352;2023-12-28T14:20:44;17.70;56.00
22469;DHT22;11401;50.792;4.352;2023-12-28T14:23:11;17.60;56.50
22469;DHT22;11401;50.792;4.352;2023-12-28T14:25:39;17.70;57.00
22469;DHT22;11401;50.792;4.352;2023-12-28T14:28:07;17.70;56.10
22469;DHT22;11401;50.792;4.352;2023-12-28T14:30:34;17.70;56.10
22469;DHT22;11401;50.792;4.352;2023-12-28T14:33:02;17.60;55.50
22469;DHT22;11401;50.792;4.352;2023-12-28T14:35:30;17.70;56.30
22469;DHT22;11401;50.792;4.352;2023-12-28T14:37:57;17.60;55.90
22469;DHT22;11401;50.792;4.352;2023-12-28T14:40:25;17.50;55.30
22469;DHT22;11401;50.792;4.352;2023-12-28T14:42:53;17.50;56.40
22469;DHT22;11401;50.792;4.352;2023-12-28T14:45:20;17.60;56.20
22469;DHT22;11401;50.792;4.352;2023-12-28T14:47:48;17.50;56.60
22469;DHT22;11401;50.792;4.352;2023-12-28T14:50:15;17.40;55.70
22469;DHT22;11401;50.792;4.352;2023-12-28T14:52:42;17.30;55.50
22469;DHT22;11401;50.792;4.352;2023-12-28T14:55:10;17.30;55.80
22469;DHT22;11401;50.792;4.352;2023-12-28T14:57:37;17.40;56.00
22469;DHT22;11401;50.792;4.352;2023-12-28T15:00:05;17.30;56.10
22469;DHT22;11401;50.792;4.352;2023-12-28T15:02:32;17.30;56.10
22469;DHT22;11401;50.792;4.352;2023-12-28T15:05:00;17.30;55.80
22469;DHT22;11401;50.792;4.352;2023-12-28T15:07:28;17.30;57.10
22469;DHT22;11401;50.792;4.352;2023-12-28T15:09:55;17.30;56.40
22469;DHT22;11401;50.792;4.352;2023-12-28T15:12:25;17.20;56.40
22469;DHT22;11401;50.792;4.352;2023-12-28T15:14:53;17.40;57.30
22469;DHT22;11401;50.792;4.352;2023-12-28T15:17:20;17.40;57.30
22469;DHT22;11401;50.792;4.352;2023-12-28T15:19:49;17.60;58.40
22469;DHT22;11401;50.792;4.352;2023-12-28T15:22:16;17.60;58.20
22469;DHT22;11401;50.792;4.352;2023-12-28T15:24:44;17.70;57.50
22469;DHT22;11401;50.792;4.352;2023-12-28T15:27:11;17.60;54.90
22469;DHT22;11401;50.792;4.352;2023-12-28T15:29:39;17.50;55.00
22469;DHT22;11401;50.792;4.352;2023-12-28T15:32:06;17.40;55.50
22469;DHT22;11401;50.792;4.352;2023-12-28T15:34:33;17.20;54.50
22469;DHT22;11401;50.792;4.352;2023-12-28T15:37:00;17.10;55.20
22469;DHT22;11401;50.792;4.352;2023-12-28T15:39:27;17.20;56.30
22469;DHT22;11401;50.792;4.352;2023-12-28T15:41:55;17.30;56.50
22469;DHT22;11401;50.792;4.352;2023-12-28T15:44:22;17.20;55.00